Time;durP1;ratioP1;P1;durP2;ratioP2;P2;SDS_P1;SDS_P2;PMS_P1;PMS_P2;Temp;Humidity;BMP_temperature;BMP_pressure;BME280_temperature;BME280_humidity;BME280_pressure;Samples;Min_cycle;Max_cycle;Signal;HPM_P1;HPM_P2
2021/01/08 03:45:13;;;;;;;9.20;4.55;;;0.00;85.70;;;;;;6000683;23;89062;31
2021/01/08 03:47:39;;;;;;;6.10;3.72;;;0.00;86.20;;;;;;4909217;28;88190;-83
2021/01/08 03:50:05;;;;;;;6.25;4.40;;;0.00;85.60;;;;;;4901262;28;88698;-84
2021/01/08 03:55:55;;;;;;;9.05;4.60;;;0.00;85.80;;;;;;4947046;28;85380;-82
2021/01/08 03:58:21;;;;;;;11.88;5.43;;;0.00;85.60;;;;;;4948816;28;87952;-81
2021/01/08 04:00:48;;;;;;;6.45;4.00;;;-0.10;85.70;;;;;;4948909;28;87396;-83
2021/01/08 04:03:14;;;;;;;8.60;4.97;;;-0.10;85.40;;;;;;4927885;28;87130;-83
2021/01/08 04:05:40;;;;;;;9.02;4.50;;;-0.10;84.80;;;;;;4942026;28;86237;-82
2021/01/08 04:08:05;;;;;;;7.68;4.65;;;-0.10;84.60;;;;;;4924088;28;87728;-82
2021/01/08 04:10:31;;;;;;;8.60;4.40;;;-0.10;84.40;;;;;;4929573;28;86590;-81
2021/01/08 04:12:59;;;;;;;9.48;4.72;;;-0.10;85.00;;;;;;4929415;28;86367;-82
2021/01/08 04:15:25;;;;;;;8.23;4.80;;;-0.10;85.30;;;;;;4924316;28;86374;-82
2021/01/08 04:17:50;;;;;;;10.90;4.28;;;-0.10;85.30;;;;;;4923406;28;87028;-83
2021/01/08 04:20:16;;;;;;;7.55;4.70;;;-0.10;85.50;;;;;;4922470;28;85864;-83
2021/01/08 04:22:42;;;;;;;10.00;4.90;;;-0.20;85.80;;;;;;4932542;28;86438;-84
2021/01/08 04:25:08;;;;;;;9.27;4.80;;;-0.10;86.60;;;;;;4917025;28;86507;-84
2021/01/08 04:27:34;;;;;;;8.07;4.32;;;-0.10;86.90;;;;;;4908467;28;88192;-84
2021/01/08 04:30:00;;;;;;;6.30;3.35;;;-0.10;86.60;;;;;;4912102;28;88219;-83
2021/01/08 04:32:25;;;;;;;7.45;3.90;;;-0.10;86.20;;;;;;4913085;28;86617;-83
2021/01/08 04:34:51;;;;;;;6.00;2.80;;;-0.20;86.20;;;;;;4918285;28;86768;-83
2021/01/08 04:37:17;;;;;;;7.53;4.07;;;-0.20;85.50;;;;;;4912460;28;87048;-84
2021/01/08 04:39:42;;;;;;;5.70;3.20;;;-0.30;85.60;;;;;;4911904;28;87907;-85
2021/01/08 04:42:08;;;;;;;6.63;3.70;;;-0.30;84.60;;;;;;4911474;28;86591;-85
2021/01/08 04:44:34;;;;;;;8.00;4.20;;;-0.30;84.80;;;;;;4894384;28;85674;-84
2021/01/08 04:47:00;;;;;;;7.15;3.45;;;-0.30;84.70;;;;;;4901370;28;88183;-84
2021/01/08 04:49:26;;;;;;;8.70;4.63;;;-0.30;84.10;;;;;;4918747;28;86477;-84
2021/01/08 04:51:53;;;;;;;9.93;4.35;;;-0.30;84.70;;;;;;4912265;28;87094;-84
2021/01/08 04:54:19;;;;;;;4.63;3.22;;;-0.30;84.60;;;;;;4913319;28;87159;-83
2021/01/08 04:56:47;;;;;;;4.63;2.85;;;-0.30;84.10;;;;;;4929984;28;89618;-83
2021/01/08 04:59:16;;;;;;;7.18;3.25;;;-0.30;84.00;;;;;;4930296;28;87243;-84
2021/01/08 05:01:42;;;;;;;5.80;2.80;;;-0.30;84.20;;;;;;4928760;28;86897;-83
2021/01/08 05:04:08;;;;;;;8.40;3.75;;;-0.30;83.90;;;;;;4923171;28;86619;-84
2021/01/08 05:06:34;;;;;;;6.78;4.05;;;-0.30;84.30;;;;;;4938059;28;87688;-84
2021/01/08 05:09:00;;;;;;;7.70;4.28;;;-0.20;84.50;;;;;;4914866;28;87665;-84
2021/01/08 05:11:28;;;;;;;8.85;3.97;;;-0.20;85.00;;;;;;4930648;28;86442;-84
2021/01/08 05:13:59;;;;;;;8.52;3.90;;;-0.20;84.20;;;;;;4920469;28;87423;-86
2021/01/08 05:16:27;;;;;;;8.35;4.53;;;-0.20;84.10;;;;;;4935056;28;88088;-84
2021/01/08 05:18:54;;;;;;;2.72;2.47;;;-0.20;83.90;;;;;;4929676;28;88306;-85
2021/01/08 05:21:20;;;;;;;7.32;3.50;;;-0.20;83.50;;;;;;4913267;28;86398;-84
2021/01/08 05:23:49;;;;;;;8.73;4.45;;;-0.30;83.60;;;;;;4935545;28;87011;-84
2021/01/08 05:26:16;;;;;;;7.22;4.07;;;-0.20;83.70;;;;;;4930124;28;87023;-83
2021/01/08 05:28:55;;;;;;;7.22;4.20;;;-0.30;83.60;;;;;;4939917;28;87425;-84
2021/01/08 05:31:23;;;;;;;8.48;4.35;;;-0.20;84.00;;;;;;4932458;28;87015;-84
2021/01/08 05:33:50;;;;;;;6.95;3.88;;;-0.30;84.00;;;;;;4929854;28;86519;-84
2021/01/08 05:36:17;;;;;;;5.80;2.80;;;-0.30;84.30;;;;;;4911399;28;89257;-84
2021/01/08 05:38:48;;;;;;;5.28;2.83;;;-0.30;83.70;;;;;;4931554;28;87187;-84
2021/01/08 05:41:18;;;;;;;5.72;3.13;;;-0.30;83.60;;;;;;4933418;28;88003;-84
2021/01/08 05:43:46;;;;;;;7.93;3.65;;;-0.30;84.20;;;;;;4914411;28;87683;-83
2021/01/08 05:46:19;;;;;;;8.05;4.43;;;-0.30;83.90;;;;;;4936759;28;87388;-84
2021/01/08 05:48:51;;;;;;;7.80;3.83;;;-0.30;84.50;;;;;;4913071;28;90030;-84
2021/01/08 05:51:22;;;;;;;8.88;3.88;;;-0.30;84.10;;;;;;4931433;28;86809;-84
2021/01/08 05:53:51;;;;;;;10.88;4.30;;;-0.30;84.00;;;;;;4930159;28;86297;-84
2021/01/08 05:56:18;;;;;;;8.50;4.43;;;-0.20;83.60;;;;;;4929725;28;88156;-85
2021/01/08 05:58:46;;;;;;;9.40;3.92;;;-0.10;83.60;;;;;;4929250;28;86371;-85
2021/01/08 06:01:12;;;;;;;10.35;4.60;;;0.00;82.80;;;;;;4932230;28;86856;-84
2021/01/08 06:03:40;;;;;;;4.90;2.65;;;-0.10;82.90;;;;;;4928919;28;86565;-85
2021/01/08 06:06:06;;;;;;;8.70;3.75;;;-0.20;83.50;;;;;;4928978;28;88735;-84
2021/01/08 06:08:53;;;;;;;8.77;4.47;;;-0.30;85.40;;;;;;4929608;28;87888;-84
2021/01/08 06:11:26;;;;;;;9.27;4.90;;;-0.30;85.60;;;;;;4929776;28;86157;-85
2021/01/08 06:13:53;;;;;;;9.88;5.22;;;-0.20;85.80;;;;;;4929412;28;86957;-83
2021/01/08 06:16:20;;;;;;;7.28;3.78;;;-0.20;85.90;;;;;;4929843;28;87808;-84
2021/01/08 06:18:50;;;;;;;9.60;5.10;;;-0.20;86.10;;;;;;4929112;28;86868;-84
2021/01/08 06:21:17;;;;;;;7.13;4.17;;;-0.20;86.60;;;;;;4937770;28;86652;-82
2021/01/08 06:23:48;;;;;;;9.45;4.30;;;-0.20;86.30;;;;;;4930719;28;86322;-84
2021/01/08 06:26:19;;;;;;;5.80;3.23;;;-0.20;87.10;;;;;;4930716;28;87375;-84
2021/01/08 06:28:50;;;;;;;9.38;5.28;;;-0.20;87.30;;;;;;4931857;28;87371;-84
2021/01/08 06:31:21;;;;;;;7.00;4.40;;;-0.20;87.30;;;;;;4932902;28;87419;-84
2021/01/08 06:33:57;;;;;;;9.63;4.80;;;-0.10;87.90;;;;;;4933157;28;87291;-87
2021/01/08 06:36:31;;;;;;;8.57;5.45;;;-0.10;87.80;;;;;;4933409;28;87146;-86
2021/01/08 06:39:09;;;;;;;9.48;4.53;;;-0.20;88.30;;;;;;4933071;28;86939;-86
2021/01/08 06:41:35;;;;;;;9.82;4.93;;;-0.10;87.70;;;;;;4932753;28;86997;-86
2021/01/08 06:44:04;;;;;;;8.98;4.40;;;0.00;87.50;;;;;;4911950;28;86425;-85
2021/01/08 06:46:37;;;;;;;9.48;5.18;;;0.00;86.50;;;;;;4942394;28;87427;-86
2021/01/08 06:49:07;;;;;;;9.63;5.28;;;0.00;86.10;;;;;;4945250;28;86793;-87
2021/01/08 06:51:39;;;;;;;11.68;5.20;;;0.10;85.50;;;;;;4945442;28;86986;-86
2021/01/08 06:54:07;;;;;;;8.93;4.57;;;0.10;86.10;;;;;;4944989;28;86955;-86
2021/01/08 06:56:43;;;;;;;10.00;5.13;;;0.10;84.70;;;;;;4931456;28;88624;-85
2021/01/08 06:59:11;;;;;;;7.72;4.55;;;0.10;85.10;;;;;;4914738;28;90592;-85
2021/01/08 07:01:42;;;;;;;10.00;4.70;;;0.20;85.10;;;;;;4931419;28;87796;-84
2021/01/08 07:04:11;;;;;;;7.20;4.10;;;0.20;81.30;;;;;;4932038;28;86488;-85
2021/01/08 07:06:38;;;;;;;9.38;5.03;;;0.00;78.10;;;;;;4931379;28;87588;-85
2021/01/08 07:09:06;;;;;;;5.10;3.28;;;0.10;78.60;;;;;;4931738;28;87006;-84
2021/01/08 07:11:33;;;;;;;6.57;3.63;;;0.00;78.40;;;;;;4931999;28;86867;-85
2021/01/08 07:14:14;;;;;;;5.00;3.05;;;-0.10;78.70;;;;;;4931764;28;86251;-84
2021/01/08 07:16:46;;;;;;;9.15;4.18;;;-0.10;79.00;;;;;;4931540;28;87103;-85
2021/01/08 07:19:14;;;;;;;5.55;2.85;;;-0.10;78.60;;;;;;4934094;28;87748;-85
2021/01/08 07:21:52;;;;;;;8.32;3.47;;;-0.20;78.70;;;;;;4914921;28;88281;-84
2021/01/08 07:24:30;;;;;;;6.43;3.28;;;-0.20;79.00;;;;;;4932173;28;87373;-84
2021/01/08 07:27:24;;;;;;;3.60;2.75;;;-0.20;78.60;;;;;;4931061;28;86940;-85
2021/01/08 07:29:52;;;;;;;7.03;2.60;;;-0.20;78.20;;;;;;4903718;28;87510;-85
2021/01/08 07:32:37;;;;;;;6.78;2.65;;;-0.20;78.20;;;;;;4953152;28;86860;-84
2021/01/08 07:35:20;;;;;;;3.42;2.58;;;-0.20;77.40;;;;;;4918302;28;86770;-87
2021/01/08 07:38:01;;;;;;;6.43;3.10;;;-0.20;76.30;;;;;;4930139;28;87675;-85
2021/01/08 07:40:31;;;;;;;7.28;3.60;;;-0.20;76.80;;;;;;4926385;28;87404;-84
2021/01/08 07:42:57;;;;;;;6.25;3.47;;;-0.20;76.10;;;;;;4932240;28;87385;-85
2021/01/08 07:45:23;;;;;;;7.97;3.50;;;-0.20;75.80;;;;;;4929239;28;87004;-83
2021/01/08 07:47:49;;;;;;;5.68;2.50;;;-0.20;76.60;;;;;;4936610;28;88504;-85
2021/01/08 07:50:17;;;;;;;9.15;3.92;;;-0.20;75.20;;;;;;4938557;28;88391;-83
2021/01/08 07:52:46;;;;;;;5.13;3.05;;;-0.20;75.50;;;;;;4931855;28;86885;-84
2021/01/08 07:55:45;;;;;;;3.53;2.13;;;-0.20;73.80;;;;;;4919070;28;86818;-84
2021/01/08 07:58:11;;;;;;;3.50;2.40;;;-0.10;73.00;;;;;;4937362;28;86713;-83
2021/01/08 08:00:39;;;;;;;5.47;2.80;;;0.00;72.20;;;;;;4941069;28;86500;-84
2021/01/08 08:03:06;;;;;;;3.90;2.67;;;0.00;72.60;;;;;;4929961;28;87070;-85
2021/01/08 08:05:31;;;;;;;5.60;2.97;;;0.20;71.50;;;;;;4911757;28;87339;-85
2021/01/08 08:08:02;;;;;;;5.03;2.60;;;0.30;71.50;;;;;;4934130;28;87824;-86
2021/01/08 08:10:30;;;;;;;6.72;3.53;;;0.40;71.40;;;;;;4930262;28;86964;-85
2021/01/08 08:12:59;;;;;;;5.18;3.42;;;0.50;71.90;;;;;;4927397;28;88079;-86
2021/01/08 08:15:25;;;;;;;7.90;3.60;;;0.60;71.60;;;;;;4913766;28;87007;-85
2021/01/08 08:17:51;;;;;;;5.82;3.70;;;0.80;71.10;;;;;;4932169;28;86534;-84
2021/01/08 08:20:24;;;;;;;7.18;3.50;;;0.90;71.30;;;;;;4914165;28;87810;-86
2021/01/08 08:22:53;;;;;;;4.85;3.25;;;1.00;70.60;;;;;;4933851;28;86902;-86
2021/01/08 08:25:29;;;;;;;4.18;2.95;;;1.00;70.40;;;;;;4946497;28;87049;-86
2021/01/08 08:27:59;;;;;;;4.88;2.83;;;1.10;70.20;;;;;;4910689;28;91175;-85
2021/01/08 08:30:29;;;;;;;5.72;3.40;;;1.10;70.80;;;;;;4930113;28;87403;-83
2021/01/08 08:32:57;;;;;;;6.68;3.25;;;1.10;70.20;;;;;;4930825;28;86589;-85
2021/01/08 08:35:22;;;;;;;6.35;3.60;;;1.20;71.20;;;;;;4932600;28;86894;-85
2021/01/08 08:37:55;;;;;;;7.65;3.72;;;1.30;70.80;;;;;;4912339;28;91673;-84
2021/01/08 08:40:29;;;;;;;8.55;4.10;;;1.60;69.10;;;;;;4928703;28;88383;-86
2021/01/08 08:42:59;;;;;;;7.93;4.10;;;1.60;69.50;;;;;;4927400;28;86864;-82
2021/01/08 08:45:31;;;;;;;7.03;4.57;;;1.60;72.40;;;;;;4924734;28;87078;-85
2021/01/08 08:48:07;;;;;;;5.85;3.22;;;1.80;69.30;;;;;;4935812;28;88215;-84
2021/01/08 08:50:34;;;;;;;7.95;4.00;;;1.80;67.90;;;;;;4914686;28;89196;-83
2021/01/08 08:53:13;;;;;;;6.93;5.70;;;2.00;68.20;;;;;;4928295;28;86443;-85
2021/01/08 08:55:40;;;;;;;7.18;4.25;;;2.00;68.70;;;;;;4928092;28;86382;-84
2021/01/08 08:58:13;;;;;;;6.38;3.85;;;2.30;68.30;;;;;;4944683;28;86917;-82
2021/01/08 09:00:43;;;;;;;5.38;3.35;;;2.40;67.30;;;;;;4944224;28;87068;-85
2021/01/08 09:03:22;;;;;;;6.70;4.00;;;2.20;68.00;;;;;;4926082;28;87410;-82
2021/01/08 09:05:52;;;;;;;6.70;3.90;;;2.20;68.60;;;;;;4940963;28;86810;-86
2021/01/08 09:08:36;;;;;;;6.03;4.50;;;1.40;70.00;;;;;;4930368;28;88203;-84
2021/01/08 09:11:36;;;;;;;6.53;4.05;;;2.30;68.30;;;;;;4930484;28;86935;-88
2021/01/08 09:14:12;;;;;;;8.15;4.22;;;2.70;67.20;;;;;;4914194;28;87479;-86
2021/01/08 09:16:46;;;;;;;7.60;3.75;;;2.80;67.00;;;;;;4939241;28;86783;-84
2021/01/08 09:19:34;;;;;;;6.75;5.30;;;3.30;67.00;;;;;;4930184;28;87076;-85
2021/01/08 09:22:04;;;;;;;6.20;3.60;;;3.10;65.70;;;;;;4922020;28;87037;-84
2021/01/08 09:24:35;;;;;;;9.43;5.57;;;3.10;65.60;;;;;;4931166;28;86998;-82
2021/01/08 09:27:04;;;;;;;6.40;4.70;;;2.70;64.40;;;;;;4929301;28;86191;-85
2021/01/08 09:29:34;;;;;;;6.07;5.18;;;2.70;64.80;;;;;;4930408;28;89955;-86
2021/01/08 09:32:02;;;;;;;6.93;3.83;;;2.70;65.30;;;;;;4912802;28;90045;-84
2021/01/08 09:34:29;;;;;;;6.32;3.67;;;2.80;65.50;;;;;;4938022;28;86880;-84
2021/01/08 09:36:57;;;;;;;9.05;5.05;;;2.80;64.80;;;;;;4929958;28;87022;-87
2021/01/08 09:39:27;;;;;;;7.38;3.67;;;2.80;65.30;;;;;;4929810;28;87008;-85
2021/01/08 09:41:58;;;;;;;6.35;3.78;;;2.80;65.70;;;;;;4940323;28;87457;-86
2021/01/08 09:44:33;;;;;;;;;;;2.90;64.50;;;;;;4932077;28;86758;-87
2021/01/08 09:47:05;;;;;;;6.85;4.65;;;2.80;62.60;;;;;;4916306;28;86215;-86
2021/01/08 09:49:56;;;;;;;6.15;4.63;;;2.70;63.20;;;;;;4929164;28;87852;-85
2021/01/08 09:52:29;;;;;;;8.38;4.47;;;2.50;63.50;;;;;;4939000;28;86972;-81
2021/01/08 09:54:55;;;;;;;7.13;4.65;;;2.70;63.10;;;;;;4929712;28;87299;-81
2021/01/08 09:57:25;;;;;;;4.93;4.05;;;2.30;63.00;;;;;;4946172;28;86285;-83
2021/01/08 09:59:58;;;;;;;6.00;4.53;;;2.40;63.90;;;;;;4931386;28;89730;-83
2021/01/08 10:02:46;;;;;;;7.57;4.32;;;2.50;63.30;;;;;;4920798;28;87784;-86
2021/01/08 10:05:26;;;;;;;4.35;3.55;;;2.80;62.80;;;;;;4939054;28;86726;-83
2021/01/08 10:08:10;;;;;;;4.17;3.77;;;2.90;63.20;;;;;;4943992;28;86922;-83
2021/01/08 10:10:39;;;;;;;4.88;3.58;;;2.60;63.50;;;;;;4925739;28;87640;-84
2021/01/08 10:13:08;;;;;;;5.10;3.38;;;2.60;64.00;;;;;;4948757;28;86159;-85
2021/01/08 10:15:37;;;;;;;6.07;4.20;;;2.80;63.30;;;;;;4939234;28;87007;-85
2021/01/08 10:18:21;;;;;;;4.70;4.25;;;2.80;63.60;;;;;;4922364;28;86554;-85
2021/01/08 10:20:53;;;;;;;6.47;4.15;;;2.50;64.00;;;;;;4937999;28;88413;-83
2021/01/08 10:23:25;;;;;;;5.63;4.13;;;2.50;65.50;;;;;;4927614;28;88004;-84
2021/01/08 10:25:52;;;;;;;7.03;4.38;;;;;;;;;;4933809;28;87076;-83
2021/01/08 10:28:23;;;;;;;8.82;4.03;;;2.50;66.80;;;;;;4937196;28;87035;-85
2021/01/08 10:30:50;;;;;;;;;;;2.60;65.80;;;;;;4925947;28;87458;-83
2021/01/08 10:33:17;;;;;;;9.05;4.00;;;2.70;65.70;;;;;;4938261;28;86930;-82
2021/01/08 10:35:48;;;;;;;7.65;3.60;;;2.70;65.80;;;;;;4934993;28;86910;-83
2021/01/08 10:38:14;;;;;;;9.55;5.47;;;;;;;;;;4937230;28;86263;-83
2021/01/08 10:40:40;;;;;;;7.35;4.93;;;;;;;;;;4938505;28;90208;-85
2021/01/08 10:43:09;;;;;;;9.77;3.78;;;2.80;65.30;;;;;;4917648;28;87706;-84
2021/01/08 10:45:38;;;;;;;9.23;5.28;;;3.00;66.10;;;;;;4937736;28;87516;-84
2021/01/08 10:48:05;;;;;;;7.82;4.90;;;3.00;66.60;;;;;;4936791;28;86743;-85
2021/01/08 10:50:31;;;;;;;8.80;3.92;;;3.10;66.70;;;;;;4936713;28;87686;-83
2021/01/08 10:52:57;;;;;;;7.93;5.43;;;;;;;;;;4934103;28;87587;-86
2021/01/08 10:55:23;;;;;;;6.75;4.82;;;3.20;64.80;;;;;;4941016;28;86519;-85
2021/01/08 10:57:49;;;;;;;7.95;4.57;;;3.30;64.90;;;;;;4915786;28;87076;-85
2021/01/08 11:00:18;;;;;;;7.93;5.32;;;3.10;65.10;;;;;;4925709;28;87957;-85
2021/01/08 11:02:44;;;;;;;9.18;5.72;;;;;;;;;;4933030;28;87389;-83
2021/01/08 11:05:11;;;;;;;10.15;5.20;;;3.50;64.60;;;;;;4916259;28;87123;-85
2021/01/08 11:07:36;;;;;;;8.88;5.63;;;3.60;65.40;;;;;;4934690;28;86544;-86
2021/01/08 11:10:05;;;;;;;7.63;5.05;;;3.70;65.20;;;;;;4911367;28;89521;-84
2021/01/08 11:12:34;;;;;;;8.02;5.30;;;;;;;;;;4929414;28;87925;-84
2021/01/08 11:15:04;;;;;;;7.28;4.22;;;3.90;65.00;;;;;;4931011;28;86943;-83
2021/01/08 11:17:30;;;;;;;8.68;4.43;;;4.10;64.20;;;;;;4933384;28;87011;-81
2021/01/08 11:19:56;;;;;;;7.50;4.57;;;4.20;63.90;;;;;;4932697;28;87001;-83
2021/01/08 11:22:22;;;;;;;9.55;5.32;;;;;;;;;;4934329;28;86846;-83
2021/01/08 11:24:48;;;;;;;6.90;4.32;;;4.40;62.60;;;;;;4911974;28;86981;-85
2021/01/08 11:27:14;;;;;;;7.47;5.65;;;;;;;;;;4932081;28;86761;-84
2021/01/08 11:29:40;;;;;;;7.15;4.10;;;4.40;63.90;;;;;;4933415;28;86854;-84
2021/01/08 11:32:08;;;;;;;6.70;4.32;;;4.60;63.40;;;;;;4921951;28;88454;-83
2021/01/08 11:34:34;;;;;;;7.45;4.38;;;4.70;62.60;;;;;;4935791;28;87847;-81
2021/01/08 11:37:00;;;;;;;8.68;5.88;;;;;;;;;;4931855;28;87234;-82
2021/01/08 11:39:26;;;;;;;8.95;5.43;;;;;;;;;;4933034;28;87189;-84
2021/01/08 11:41:56;;;;;;;8.60;5.95;;;4.90;61.60;;;;;;4934083;28;86896;-84
2021/01/08 11:44:23;;;;;;;7.65;4.68;;;4.90;62.00;;;;;;4914300;28;86765;-81
2021/01/08 11:46:49;;;;;;;8.10;5.07;;;;;;;;;;4929782;28;87847;-82
2021/01/08 11:49:15;;;;;;;8.30;5.70;;;5.30;59.70;;;;;;4933381;28;87511;-82
2021/01/08 11:51:41;;;;;;;7.38;5.25;;;5.30;60.20;;;;;;4934274;28;86163;-83
2021/01/08 11:54:07;;;;;;;9.32;5.38;;;5.30;61.40;;;;;;4942000;28;86613;-83
2021/01/08 11:56:33;;;;;;;8.85;5.53;;;;;;;;;;4930106;28;86911;-83
2021/01/08 11:58:59;;;;;;;6.75;5.13;;;;;;;;;;4929063;28;88539;-83
2021/01/08 12:01:26;;;;;;;7.40;5.68;;;5.20;59.40;;;;;;4939867;28;87967;-85
2021/01/08 12:03:54;;;;;;;8.50;5.43;;;5.40;59.90;;;;;;4938349;28;87049;-83
2021/01/08 12:06:28;;;;;;;8.48;4.90;;;5.40;60.20;;;;;;4928413;28;87217;-82
2021/01/08 12:08:55;;;;;;;8.65;5.95;;;5.60;60.50;;;;;;4934647;28;87731;-85
2021/01/08 12:11:21;;;;;;;8.18;4.35;;;5.60;61.00;;;;;;4919541;28;89772;-86
2021/01/08 12:13:47;;;;;;;6.65;5.32;;;5.50;58.50;;;;;;4930293;28;87065;-86
2021/01/08 12:16:12;;;;;;;7.75;4.28;;;5.70;59.10;;;;;;4931767;28;86127;-85
2021/01/08 12:18:38;;;;;;;9.75;6.07;;;5.60;60.10;;;;;;4932842;28;87893;-84
2021/01/08 12:21:07;;;;;;;6.88;4.47;;;5.40;60.30;;;;;;4931974;28;87529;-83
2021/01/08 12:23:35;;;;;;;7.00;4.72;;;5.30;57.90;;;;;;4930062;28;87931;-85
2021/01/08 12:26:01;;;;;;;8.40;5.38;;;;;;;;;;4903990;28;87023;-86
2021/01/08 12:28:27;;;;;;;6.68;5.97;;;5.20;57.90;;;;;;4929861;28;87307;-83
2021/01/08 12:30:53;;;;;;;6.72;5.00;;;;;;;;;;4934197;28;86641;-84
2021/01/08 12:33:19;;;;;;;7.57;5.40;;;;;;;;;;4929470;28;86332;-83
2021/01/08 12:35:45;;;;;;;10.63;6.93;;;;;;;;;;4929598;28;87195;-85
2021/01/08 12:38:11;;;;;;;13.88;6.95;;;4.70;57.10;;;;;;4930885;28;86825;-83
2021/01/08 12:40:37;;;;;;;7.28;4.80;;;4.90;58.20;;;;;;4929862;28;86423;-83
2021/01/08 12:43:03;;;;;;;6.85;5.50;;;5.00;56.90;;;;;;4932896;28;86926;-83
2021/01/08 12:45:28;;;;;;;7.30;5.93;;;5.20;57.70;;;;;;4910604;28;86446;-84
2021/01/08 12:47:55;;;;;;;8.20;5.97;;;5.30;57.20;;;;;;4928109;28;87500;-83
2021/01/08 12:50:21;;;;;;;9.10;6.18;;;5.00;57.30;;;;;;4927497;28;89076;-84
2021/01/08 12:52:47;;;;;;;8.25;6.03;;;;;;;;;;4932639;28;87051;-83
2021/01/08 12:55:13;;;;;;;9.57;5.93;;;5.30;54.80;;;;;;4925293;28;86929;-83
2021/01/08 12:57:39;;;;;;;7.43;4.70;;;5.50;55.30;;;;;;4939143;28;87385;-86
2021/01/08 13:00:07;;;;;;;7.65;4.45;;;5.50;56.10;;;;;;4914696;28;87596;-83
2021/01/08 13:02:32;;;;;;;8.23;5.20;;;5.40;53.80;;;;;;4929697;28;87136;-84
2021/01/08 13:04:59;;;;;;;9.65;6.15;;;5.00;54.90;;;;;;4943363;28;85613;-83
2021/01/08 13:07:25;;;;;;;11.35;4.85;;;5.10;55.30;;;;;;4928603;28;86697;-82
2021/01/08 13:09:52;;;;;;;8.40;5.85;;;4.90;54.50;;;;;;4931133;28;87055;-83
2021/01/08 13:12:18;;;;;;;7.30;5.82;;;4.70;55.50;;;;;;4928998;28;87530;-82
2021/01/08 13:14:44;;;;;;;9.35;5.53;;;;;;;;;;4927610;28;86875;-82
2021/01/08 13:17:10;;;;;;;6.47;4.85;;;;;;;;;;4927654;28;87581;-83
2021/01/08 13:19:36;;;;;;;9.80;5.47;;;;;;;;;;4936484;28;86367;-83
2021/01/08 13:22:02;;;;;;;8.85;6.38;;;;;;;;;;4931874;28;86956;-83
2021/01/08 13:24:28;;;;;;;9.45;6.47;;;;;;;;;;4938741;28;86869;-83
2021/01/08 13:26:58;;;;;;;9.38;5.68;;;4.70;55.30;;;;;;4927986;28;88008;-83
2021/01/08 13:29:23;;;;;;;8.30;5.95;;;5.00;54.70;;;;;;4935431;28;86974;-82
2021/01/08 13:31:50;;;;;;;10.18;6.00;;;5.00;54.50;;;;;;4928655;28;86889;-83
2021/01/08 13:34:16;;;;;;;7.40;4.63;;;5.10;55.10;;;;;;4927383;28;86853;-82
2021/01/08 13:36:42;;;;;;;8.85;6.18;;;;;;;;;;4932045;28;88270;-82
2021/01/08 13:39:08;;;;;;;9.05;5.85;;;5.10;54.50;;;;;;4940535;28;87130;-83
2021/01/08 13:41:35;;;;;;;11.90;7.38;;;5.00;55.30;;;;;;4931743;28;86835;-83
2021/01/08 13:44:01;;;;;;;20.48;8.88;;;5.10;55.70;;;;;;4948525;28;86824;-83
2021/01/08 13:46:28;;;;;;;11.02;6.85;;;5.30;56.90;;;;;;4931911;28;86806;-83
2021/01/08 13:48:54;;;;;;;8.75;6.35;;;5.40;55.90;;;;;;4930618;28;87307;-83
2021/01/08 13:51:24;;;;;;;9.40;5.93;;;5.40;55.90;;;;;;4933087;28;87039;-83
2021/01/08 13:53:51;;;;;;;8.63;6.18;;;5.40;56.10;;;;;;4910741;28;86408;-83
2021/01/08 13:56:18;;;;;;;8.80;6.50;;;5.50;55.90;;;;;;4927673;28;87690;-82
2021/01/08 13:58:45;;;;;;;9.48;6.90;;;;;;;;;;4933976;28;87591;-84
2021/01/08 14:01:15;;;;;;;8.40;4.25;;;5.30;55.30;;;;;;4933272;28;88056;-83
2021/01/08 14:03:44;;;;;;;10.68;4.60;;;5.20;54.60;;;;;;4937109;28;86972;-83
2021/01/08 14:06:23;;;;;;;9.77;6.38;;;5.10;55.50;;;;;;4935182;28;88275;-84
2021/01/08 14:08:49;;;;;;;7.18;5.63;;;5.10;55.70;;;;;;4963806;28;86396;-80
2021/01/08 14:11:25;;;;;;;7.60;5.32;;;4.90;56.10;;;;;;4961307;28;86217;-83
2021/01/08 14:14:06;;;;;;;8.30;5.25;;;5.10;56.60;;;;;;4949868;28;86360;-83
2021/01/08 14:16:33;;;;;;;;;;;5.10;56.60;;;;;;4936872;28;87171;-80
2021/01/08 14:18:59;;;;;;;9.10;4.90;;;5.10;56.60;;;;;;4944854;28;86332;-80
2021/01/08 14:21:39;;;;;;;9.10;4.95;;;4.90;56.40;;;;;;4954725;28;86137;-81
2021/01/08 14:24:08;;;;;;;8.77;6.38;;;4.40;56.10;;;;;;4924397;28;86862;-84
2021/01/08 14:26:35;;;;;;;8.63;5.63;;;4.20;56.40;;;;;;4935634;28;88309;-83
2021/01/08 14:29:01;;;;;;;10.07;6.22;;;4.30;57.30;;;;;;4939681;28;87345;-84
2021/01/08 14:31:31;;;;;;;9.98;6.50;;;4.10;57.70;;;;;;4942524;28;86838;-83
2021/01/08 14:33:58;;;;;;;7.72;5.78;;;;;;;;;;4938311;28;87165;-82
2021/01/08 14:36:28;;;;;;;8.57;5.97;;;4.00;57.40;;;;;;4950751;28;87326;-83
2021/01/08 14:38:55;;;;;;;7.80;5.90;;;4.00;58.20;;;;;;4925785;28;87541;-83
2021/01/08 14:41:22;;;;;;;7.57;4.60;;;3.90;58.60;;;;;;4933979;28;88201;-82
2021/01/08 14:43:48;;;;;;;9.60;6.10;;;;;;;;;;4935439;28;86137;-83
2021/01/08 14:46:14;;;;;;;9.25;6.43;;;3.80;59.10;;;;;;4932917;28;87054;-83
2021/01/08 14:48:40;;;;;;;11.27;6.28;;;;;;;;;;4931518;28;86883;-83
2021/01/08 14:51:07;;;;;;;7.10;5.15;;;4.00;59.10;;;;;;4931780;28;87594;-83
2021/01/08 14:53:33;;;;;;;8.98;6.03;;;;;;;;;;4938845;28;86563;-83
2021/01/08 14:56:00;;;;;;;8.52;6.18;;;;;;;;;;4931788;28;86975;-83
2021/01/08 14:58:26;;;;;;;8.00;6.03;;;;;;;;;;4931322;28;86414;-84
2021/01/08 15:00:52;;;;;;;9.25;6.53;;;;;;;;;;4934064;28;86451;-83
2021/01/08 15:03:18;;;;;;;11.07;6.30;;;;;;;;;;4937747;28;86520;-82
2021/01/08 15:05:44;;;;;;;11.30;7.18;;;;;;;;;;4942262;28;87290;-82
2021/01/08 15:08:10;;;;;;;12.95;8.48;;;;;;;;;;4936906;28;86116;-83
2021/01/08 15:10:36;;;;;;;12.25;6.63;;;;;;;;;;4914343;28;86791;-83
2021/01/08 15:13:02;;;;;;;11.93;7.18;;;;;;;;;;4931597;28;86776;-83
2021/01/08 15:15:28;;;;;;;9.80;6.53;;;3.90;61.10;;;;;;4919092;28;90337;-83
2021/01/08 15:17:53;;;;;;;8.88;6.30;;;3.50;62.10;;;;;;4938029;28;87789;-82
2021/01/08 15:20:19;;;;;;;9.30;7.15;;;;;;;;;;4933229;28;87061;-84
2021/01/08 15:22:46;;;;;;;12.38;7.10;;;;;;;;;;4932013;28;86791;-83
2021/01/08 15:25:12;;;;;;;15.18;8.48;;;3.60;60.50;;;;;;4935502;28;87704;-81
2021/01/08 15:27:40;;;;;;;22.38;9.57;;;3.60;61.10;;;;;;4938494;28;87146;-83
2021/01/08 15:30:06;;;;;;;17.90;10.00;;;3.60;61.00;;;;;;4929605;28;87135;-85
2021/01/08 15:32:32;;;;;;;20.73;9.20;;;3.60;61.00;;;;;;4923731;28;86178;-83
2021/01/08 15:34:59;;;;;;;27.25;11.80;;;3.40;61.00;;;;;;4930180;28;86989;-83
2021/01/08 15:37:25;;;;;;;25.17;10.20;;;3.30;61.30;;;;;;4926033;28;88143;-82
2021/01/08 15:39:51;;;;;;;22.63;9.20;;;3.40;61.80;;;;;;4913898;28;88036;-82
2021/01/08 15:42:17;;;;;;;36.83;16.52;;;;;;;;;;4928988;28;86950;-82
2021/01/08 15:44:43;;;;;;;24.00;11.27;;;;;;;;;;4927941;28;87627;-82
2021/01/08 15:47:09;;;;;;;19.25;10.00;;;;;;;;;;4904739;28;89738;-83
2021/01/08 15:49:35;;;;;;;14.50;8.88;;;;;;;;;;4931549;28;86682;-84
2021/01/08 15:52:04;;;;;;;18.73;8.63;;;3.10;63.50;;;;;;4936999;28;86819;-82
2021/01/08 15:54:30;;;;;;;18.27;9.18;;;;;;;;;;4933242;28;87649;-82
2021/01/08 15:56:56;;;;;;;18.00;8.57;;;2.90;63.80;;;;;;4943560;28;87078;-82
2021/01/08 15:59:22;;;;;;;15.95;9.02;;;2.70;64.50;;;;;;4938676;28;86816;-83
2021/01/08 16:01:48;;;;;;;16.92;9.77;;;2.90;64.70;;;;;;4933006;28;86977;-82
2021/01/08 16:04:14;;;;;;;14.02;8.70;;;;;;;;;;4920094;28;91050;-82
2021/01/08 16:06:40;;;;;;;18.58;8.32;;;2.70;65.00;;;;;;4927747;28;88172;-83
2021/01/08 16:09:06;;;;;;;17.08;8.82;;;2.60;65.70;;;;;;4930304;28;86880;-82
2021/01/08 16:11:31;;;;;;;14.88;8.02;;;2.50;66.00;;;;;;4935717;28;86750;-82
2021/01/08 16:13:57;;;;;;;15.18;9.13;;;2.40;65.90;;;;;;4936821;28;86744;-82
2021/01/08 16:16:27;;;;;;;16.27;8.02;;;2.80;66.40;;;;;;4937598;28;86927;-82
2021/01/08 16:18:53;;;;;;;14.57;8.68;;;2.40;66.50;;;;;;4934516;28;86926;-83
2021/01/08 16:21:19;;;;;;;12.95;7.57;;;2.40;67.00;;;;;;4931331;28;85640;-82
2021/01/08 16:23:45;;;;;;;16.30;8.52;;;2.50;68.20;;;;;;4934524;28;90207;-82
2021/01/08 16:26:10;;;;;;;18.15;10.88;;;2.40;67.60;;;;;;4932419;28;87117;-84
2021/01/08 16:28:36;;;;;;;10.48;7.75;;;;;;;;;;4932126;28;87784;-84
2021/01/08 16:31:03;;;;;;;12.07;7.85;;;2.40;67.10;;;;;;4942395;28;86388;-83
2021/01/08 16:33:28;;;;;;;16.75;8.52;;;2.40;67.50;;;;;;4933558;28;88554;-83
2021/01/08 16:35:54;;;;;;;12.07;7.60;;;2.40;67.50;;;;;;4934621;28;87168;-80
2021/01/08 16:38:22;;;;;;;13.13;7.93;;;2.40;67.70;;;;;;4926877;28;86363;-83
2021/01/08 16:40:50;;;;;;;12.05;7.95;;;2.30;68.50;;;;;;4928987;28;86611;-82
2021/01/08 16:43:16;;;;;;;10.05;7.15;;;;;;;;;;4919937;28;88054;-83
2021/01/08 16:45:42;;;;;;;12.50;7.55;;;;;;;;;;4930514;28;86741;-85
2021/01/08 16:48:08;;;;;;;15.27;8.50;;;2.40;69.20;;;;;;4931274;28;86178;-83
2021/01/08 16:50:34;;;;;;;16.17;9.27;;;2.50;69.60;;;;;;4936142;28;87669;-84
2021/01/08 16:53:01;;;;;;;14.27;8.77;;;2.40;69.00;;;;;;4929861;28;88386;-84
2021/01/08 16:55:27;;;;;;;16.33;9.63;;;2.30;69.20;;;;;;4910216;28;89603;-84
2021/01/08 16:57:57;;;;;;;16.35;9.77;;;2.30;70.80;;;;;;4929934;28;86815;-84
2021/01/08 17:00:24;;;;;;;19.83;10.52;;;;;;;;;;4928784;28;87004;-84
2021/01/08 17:02:50;;;;;;;13.98;9.52;;;2.10;72.10;;;;;;4927310;28;86862;-82